• Join FlightAware (Why Join?)
  • Login
  • US Flag 
01:14AM EST


 

Airport Tracker/Info


-or-


 

Live Flight TrackerFlight Track Log ✈ N6319G ✈ 23-Feb-2014 ✈ KDSM - KDBQ

Flight Track Log - Related Links

Times and Time Zones

All times are in EST time to prevent confusion due to time zone crossing. See the N6319G flight status page for this flight to view local times or setup timezone preferences in your user account.

Time Position Orientation Groundspeed Altitude Reporting Facility
EST Latitude Longitude Course Direction KTS MPH feet Rate Location/Type
07:22PM 41.5572 -93.6525 71° East 70 81 2,300  Level Minneapolis Center
07:23PM 41.5569 -93.6414 92° East 78 90 2,900 840 Climbing Minneapolis Center
07:23PM 41.5653 -93.6244 57° Northeast 78 90 3,200 720 Climbing Minneapolis Center
07:24PM 41.5639 -93.6156 102° East 78 90 3,700 780 Climbing Minneapolis Center
07:24PM 41.5733 -93.5992 52° Northeast 75 86 4,000 840 Climbing Minneapolis Center
07:25PM 41.5733 -93.5881 90° East 77 89 4,600 660 Climbing Minneapolis Center
07:25PM 41.5811 -93.5742 53° Northeast 76 87 4,700 360 Climbing Minneapolis Center
07:26PM 41.5814 -93.5606 88° East 77 89 5,000 240 Climbing Minneapolis Center
07:26PM 41.5911 -93.5406 57° Northeast 93 107 5,000  Level Minneapolis Center
07:27PM 41.5356 -93.6566 71° East  Level FlightAware Approximate
07:27PM 41.5942 -93.5189 79° East 116 133 5,000  Level Minneapolis Center
07:27PM 41.6031 -93.4986 60° Northeast 126 145 5,000  Level Minneapolis Center
07:28PM 41.6075 -93.4756 76° East 119 137 5,000  Level Minneapolis Center
07:28PM 41.6169 -93.4567 56° Northeast 122 140 5,000  Level Minneapolis Center
07:29PM 41.6200 -93.4356 79° East 118 136 5,000  Level Minneapolis Center
07:29PM 41.6289 -93.4172 57° Northeast 114 131 5,000  Level Minneapolis Center
07:30PM 41.6325 -93.3931 79° East 118 136 5,000  Level Minneapolis Center
07:30PM 41.6408 -93.3781 53° Northeast 114 131 5,000  Level Minneapolis Center
07:31PM 41.6447 -93.3528 78° East 118 136 5,000  Level Minneapolis Center
07:31PM 41.6528 -93.3389 52° Northeast 117 135 5,000  Level Minneapolis Center
07:32PM 41.6581 -93.3083 77° East 118 136 5,000  Level Minneapolis Center
07:32PM 41.6647 -93.2997 44° Northeast 119 137 5,000  Level Minneapolis Center
07:33PM 41.6706 -93.2675 76° East 118 136 5,000  Level Minneapolis Center
07:33PM 41.6764 -93.2575 52° Northeast 119 137 5,000  Level Minneapolis Center
07:34PM 41.6831 -93.2269 74° East 118 136 5,000  Level Minneapolis Center
07:34PM 41.6883 -93.2183 51° Northeast 119 137 5,000  Level Minneapolis Center
07:35PM 41.7022 -93.1761 66° East 118 136 5,000  Level Minneapolis Center
07:36PM 41.7139 -93.1339 70° East 118 136 5,000  Level Minneapolis Center
07:36PM 41.7083 -93.1428 230° Southwest 118 136 5,000  Level Minneapolis Center
07:37PM 41.7258 -93.0947 64° Northeast 117 135 5,000  Level Minneapolis Center
07:37PM 41.7206 -93.1025 228° Southwest 118 136 5,000  Level Minneapolis Center
07:38PM 41.7333 -93.0592 68° East 118 136 5,000  Level Minneapolis Center
07:39PM 41.7458 -93.0186 68° East 118 136 5,000  Level Minneapolis Center
07:40PM 41.7589 -92.9747 68° East 118 136 5,000  Level Minneapolis Center
07:41PM 41.7711 -92.9336 68° East 118 136 5,000  Level Minneapolis Center
07:42PM 41.7833 -92.8925 68° East 118 136 5,000  Level Minneapolis Center
07:43PM 41.7964 -92.8478 69° East 118 136 5,000  Level Minneapolis Center
07:44PM 41.8083 -92.8064 69° East 118 136 5,000  Level Minneapolis Center
07:45PM 41.8214 -92.7628 68° East 118 136 5,000  Level Minneapolis Center
07:46PM 41.8342 -92.7222 67° East 118 136 5,000  Level Minneapolis Center
07:47PM 41.8453 -92.6803 70° East 118 136 5,000  Level Minneapolis Center
07:48PM 41.8583 -92.6361 68° East 118 136 5,000  Level Minneapolis Center
07:50PM 41.8706 -92.5939 69° East 119 137 5,000  Level Minneapolis Center
07:51PM 41.8819 -92.5525 70° East 119 137 5,000  Level Minneapolis Center
07:52PM 41.8953 -92.5081 68° East 119 137 5,000  Level Minneapolis Center
07:53PM 41.9075 -92.4664 68° East 119 137 5,000  Level Minneapolis Center
07:54PM 41.9189 -92.4308 67° East 119 137 5,100  Climbing Minneapolis Center
07:55PM 41.9308 -92.3906 68° East 119 137 5,000  Descending Minneapolis Center
07:56PM 41.9453 -92.3403 69° East 119 137 5,100  Climbing Minneapolis Center
07:57PM 41.9572 -92.2978 69° East 119 137 5,100  Level Minneapolis Center
07:58PM 41.9692 -92.2561 69° East 119 137 5,100 -60 Level Minneapolis Center
07:59PM 41.9850 -92.1917 72° East 122 140 5,000 -60 Descending Chicago Center
08:00PM 41.9978 -92.1503 67° East 122 140 5,000  Level Chicago Center
08:01PM 42.0100 -92.1100 68° East 120 138 5,000  Level Chicago Center
08:02PM 42.0247 -92.0600 68° East 120 138 5,100  Climbing Chicago Center
08:03PM 42.0361 -92.0175 70° East 120 138 5,100  Level Chicago Center
08:04PM 42.0481 -91.9769 68° East 120 138 5,100  Level Chicago Center
08:05PM 42.0611 -91.9350 67° East 121 139 5,100  Level Chicago Center
08:06PM 42.0728 -91.8917 70° East 122 140 5,100  Level Chicago Center
08:07PM 42.0856 -91.8494 68° East 123 142 5,100  Level Chicago Center
08:08PM 42.1000 -91.7978 69° East 123 142 5,100  Level Chicago Center
08:09PM 42.1119 -91.7539 70° East 124 143 5,100  Level Chicago Center
08:10PM 42.1244 -91.7108 69° East 125 144 5,100  Level Chicago Center
08:12PM 42.1364 -91.6678 69° East 124 143 5,100  Level Chicago Center
08:13PM 42.1489 -91.6253 68° East 124 143 5,100  Level Chicago Center
08:14PM 42.1628 -91.5731 70° East 124 143 5,100  Level Chicago Center
08:15PM 42.1756 -91.5300 68° East 124 143 5,100  Level Chicago Center
08:16PM 42.1881 -91.4881 68° East 124 143 5,100  Level Chicago Center
08:17PM 42.1992 -91.4450 71° East 123 142 5,100  Level Chicago Center
08:18PM 42.2114 -91.4025 69° East 123 142 5,100  Level Chicago Center
08:19PM 42.2256 -91.3508 70° East 123 142 5,100 -60 Level Chicago Center
08:20PM 42.2375 -91.3083 69° East 122 140 5,000  Descending Chicago Center
08:21PM 42.2494 -91.2664 69° East 122 140 5,100  Climbing Chicago Center
08:22PM 42.2617 -91.2236 69° East 122 140 5,100  Level Chicago Center
08:23PM 42.2739 -91.1797 69° East 123 142 5,100 -180 Level Chicago Center
08:24PM 42.2886 -91.1278 69° East 124 143 4,800 -480 Descending Chicago Center
08:25PM 42.3008 -91.0800 71° East 128 147 4,200 -360 Descending Chicago Center
08:26PM 42.3139 -91.0347 69° East 131 151 4,100 -120 Descending Chicago Center